sensor_id;sensor_type;location;lat;lon;timestamp;P1;durP1;ratioP1;P2;durP2;ratioP2
15929;SDS011;8064;51.142;4.780;2023-10-13T00:01:21;5.82;;;3.42;;
15929;SDS011;8064;51.142;4.780;2023-10-13T00:03:47;6.93;;;3.27;;
15929;SDS011;8064;51.142;4.780;2023-10-13T00:06:13;5.97;;;3.75;;
15929;SDS011;8064;51.142;4.780;2023-10-13T00:08:40;6.63;;;4.00;;
15929;SDS011;8064;51.142;4.780;2023-10-13T00:11:10;6.80;;;3.85;;
15929;SDS011;8064;51.142;4.780;2023-10-13T00:13:37;7.70;;;3.87;;
15929;SDS011;8064;51.142;4.780;2023-10-13T00:16:17;5.68;;;4.00;;
15929;SDS011;8064;51.142;4.780;2023-10-13T00:18:46;6.32;;;3.58;;
15929;SDS011;8064;51.142;4.780;2023-10-13T00:21:15;6.97;;;4.15;;
15929;SDS011;8064;51.142;4.780;2023-10-13T00:23:45;8.70;;;4.22;;
15929;SDS011;8064;51.142;4.780;2023-10-13T00:26:18;7.05;;;4.57;;
15929;SDS011;8064;51.142;4.780;2023-10-13T00:28:48;8.07;;;4.50;;
15929;SDS011;8064;51.142;4.780;2023-10-13T00:31:24;7.95;;;4.70;;
15929;SDS011;8064;51.142;4.780;2023-10-13T00:33:57;9.82;;;4.78;;
15929;SDS011;8064;51.142;4.780;2023-10-13T00:36:26;9.77;;;5.15;;
15929;SDS011;8064;51.142;4.780;2023-10-13T00:38:52;9.10;;;5.00;;
15929;SDS011;8064;51.142;4.780;2023-10-13T00:41:18;7.18;;;4.88;;
15929;SDS011;8064;51.142;4.780;2023-10-13T00:43:59;6.13;;;5.05;;
15929;SDS011;8064;51.142;4.780;2023-10-13T00:46:34;8.13;;;5.07;;
15929;SDS011;8064;51.142;4.780;2023-10-13T00:49:01;7.97;;;4.32;;
15929;SDS011;8064;51.142;4.780;2023-10-13T00:51:29;9.25;;;5.38;;
15929;SDS011;8064;51.142;4.780;2023-10-13T00:54:01;6.65;;;5.00;;
15929;SDS011;8064;51.142;4.780;2023-10-13T00:56:32;10.38;;;5.22;;
15929;SDS011;8064;51.142;4.780;2023-10-13T00:58:59;10.25;;;5.50;;
15929;SDS011;8064;51.142;4.780;2023-10-13T01:01:28;10.13;;;5.35;;
15929;SDS011;8064;51.142;4.780;2023-10-13T01:03:57;7.53;;;5.38;;
15929;SDS011;8064;51.142;4.780;2023-10-13T01:06:26;7.95;;;5.13;;
15929;SDS011;8064;51.142;4.780;2023-10-13T01:11:25;10.10;;;6.03;;
15929;SDS011;8064;51.142;4.780;2023-10-13T01:13:54;10.48;;;5.90;;
15929;SDS011;8064;51.142;4.780;2023-10-13T01:16:22;7.47;;;5.73;;
15929;SDS011;8064;51.142;4.780;2023-10-13T01:18:51;9.00;;;5.30;;
15929;SDS011;8064;51.142;4.780;2023-10-13T01:21:18;9.77;;;5.57;;
15929;SDS011;8064;51.142;4.780;2023-10-13T01:23:45;10.40;;;5.60;;
15929;SDS011;8064;51.142;4.780;2023-10-13T01:26:13;10.33;;;5.93;;
15929;SDS011;8064;51.142;4.780;2023-10-13T01:28:49;8.63;;;5.43;;
15929;SDS011;8064;51.142;4.780;2023-10-13T01:31:15;8.10;;;5.90;;
15929;SDS011;8064;51.142;4.780;2023-10-13T01:33:51;11.48;;;6.03;;
15929;SDS011;8064;51.142;4.780;2023-10-13T01:36:20;8.48;;;6.32;;
15929;SDS011;8064;51.142;4.780;2023-10-13T01:38:46;9.20;;;6.23;;
15929;SDS011;8064;51.142;4.780;2023-10-13T01:41:12;13.35;;;6.72;;
15929;SDS011;8064;51.142;4.780;2023-10-13T01:43:39;11.37;;;7.07;;
15929;SDS011;8064;51.142;4.780;2023-10-13T01:46:05;11.55;;;7.35;;
15929;SDS011;8064;51.142;4.780;2023-10-13T01:48:31;14.05;;;8.18;;
15929;SDS011;8064;51.142;4.780;2023-10-13T01:50:58;14.52;;;8.80;;
15929;SDS011;8064;51.142;4.780;2023-10-13T01:53:27;12.00;;;9.23;;
15929;SDS011;8064;51.142;4.780;2023-10-13T01:55:54;15.02;;;9.70;;
15929;SDS011;8064;51.142;4.780;2023-10-13T01:58:22;12.95;;;10.25;;
15929;SDS011;8064;51.142;4.780;2023-10-13T02:00:48;15.60;;;11.07;;
15929;SDS011;8064;51.142;4.780;2023-10-13T02:03:15;20.40;;;12.57;;
15929;SDS011;8064;51.142;4.780;2023-10-13T02:05:43;14.48;;;12.48;;
15929;SDS011;8064;51.142;4.780;2023-10-13T02:08:13;19.05;;;14.07;;
15929;SDS011;8064;51.142;4.780;2023-10-13T02:10:50;23.58;;;14.65;;
15929;SDS011;8064;51.142;4.780;2023-10-13T02:13:17;19.27;;;15.15;;
15929;SDS011;8064;51.142;4.780;2023-10-13T02:15:45;19.83;;;14.95;;
15929;SDS011;8064;51.142;4.780;2023-10-13T02:18:14;20.95;;;15.10;;
15929;SDS011;8064;51.142;4.780;2023-10-13T02:20:46;22.10;;;16.00;;
15929;SDS011;8064;51.142;4.780;2023-10-13T02:23:19;24.15;;;16.25;;
15929;SDS011;8064;51.142;4.780;2023-10-13T02:25:46;22.20;;;15.25;;
15929;SDS011;8064;51.142;4.780;2023-10-13T02:28:12;19.67;;;16.23;;
15929;SDS011;8064;51.142;4.780;2023-10-13T02:30:41;21.50;;;15.38;;
15929;SDS011;8064;51.142;4.780;2023-10-13T02:33:10;20.55;;;15.00;;
15929;SDS011;8064;51.142;4.780;2023-10-13T02:35:38;19.50;;;15.20;;
15929;SDS011;8064;51.142;4.780;2023-10-13T02:38:15;18.38;;;15.13;;
15929;SDS011;8064;51.142;4.780;2023-10-13T02:40:50;19.88;;;15.23;;
15929;SDS011;8064;51.142;4.780;2023-10-13T02:43:19;17.63;;;14.32;;
15929;SDS011;8064;51.142;4.780;2023-10-13T02:45:51;18.75;;;13.40;;
15929;SDS011;8064;51.142;4.780;2023-10-13T02:48:25;17.98;;;14.18;;
15929;SDS011;8064;51.142;4.780;2023-10-13T02:50:56;21.48;;;13.90;;
15929;SDS011;8064;51.142;4.780;2023-10-13T02:53:27;18.92;;;13.77;;
15929;SDS011;8064;51.142;4.780;2023-10-13T02:55:54;17.52;;;13.77;;
15929;SDS011;8064;51.142;4.780;2023-10-13T02:58:39;21.75;;;13.20;;
15929;SDS011;8064;51.142;4.780;2023-10-13T03:01:09;17.98;;;13.20;;
15929;SDS011;8064;51.142;4.780;2023-10-13T03:03:43;16.70;;;13.05;;
15929;SDS011;8064;51.142;4.780;2023-10-13T03:06:15;19.65;;;11.77;;
15929;SDS011;8064;51.142;4.780;2023-10-13T03:08:41;16.92;;;12.75;;
15929;SDS011;8064;51.142;4.780;2023-10-13T03:11:08;18.02;;;11.95;;
15929;SDS011;8064;51.142;4.780;2023-10-13T03:13:36;18.88;;;13.15;;
15929;SDS011;8064;51.142;4.780;2023-10-13T03:16:10;17.83;;;12.53;;
15929;SDS011;8064;51.142;4.780;2023-10-13T03:18:40;18.50;;;12.45;;
15929;SDS011;8064;51.142;4.780;2023-10-13T03:21:21;17.15;;;11.90;;
15929;SDS011;8064;51.142;4.780;2023-10-13T03:23:55;17.20;;;12.10;;
15929;SDS011;8064;51.142;4.780;2023-10-13T03:26:22;17.52;;;12.48;;
15929;SDS011;8064;51.142;4.780;2023-10-13T03:28:47;14.20;;;11.57;;
15929;SDS011;8064;51.142;4.780;2023-10-13T03:31:19;16.33;;;11.90;;
15929;SDS011;8064;51.142;4.780;2023-10-13T03:33:48;17.30;;;11.52;;
15929;SDS011;8064;51.142;4.780;2023-10-13T03:36:21;18.60;;;12.20;;
15929;SDS011;8064;51.142;4.780;2023-10-13T03:39:05;17.50;;;12.43;;
15929;SDS011;8064;51.142;4.780;2023-10-13T03:41:32;16.80;;;12.03;;
15929;SDS011;8064;51.142;4.780;2023-10-13T03:44:02;20.88;;;12.15;;
15929;SDS011;8064;51.142;4.780;2023-10-13T03:46:40;14.00;;;10.77;;
15929;SDS011;8064;51.142;4.780;2023-10-13T03:49:07;19.02;;;12.18;;
15929;SDS011;8064;51.142;4.780;2023-10-13T03:51:38;16.67;;;10.93;;
15929;SDS011;8064;51.142;4.780;2023-10-13T03:54:05;20.80;;;12.17;;
15929;SDS011;8064;51.142;4.780;2023-10-13T03:56:40;22.27;;;11.37;;
15929;SDS011;8064;51.142;4.780;2023-10-13T03:59:06;18.35;;;12.02;;
15929;SDS011;8064;51.142;4.780;2023-10-13T04:01:35;20.25;;;11.32;;
15929;SDS011;8064;51.142;4.780;2023-10-13T04:04:08;19.63;;;11.63;;
15929;SDS011;8064;51.142;4.780;2023-10-13T04:06:36;19.20;;;11.90;;
15929;SDS011;8064;51.142;4.780;2023-10-13T04:09:21;16.20;;;12.03;;
15929;SDS011;8064;51.142;4.780;2023-10-13T04:11:55;18.33;;;11.90;;
15929;SDS011;8064;51.142;4.780;2023-10-13T04:14:28;17.38;;;11.32;;
15929;SDS011;8064;51.142;4.780;2023-10-13T04:17:14;18.35;;;10.48;;
15929;SDS011;8064;51.142;4.780;2023-10-13T04:19:41;15.97;;;11.00;;
15929;SDS011;8064;51.142;4.780;2023-10-13T04:22:26;18.63;;;10.77;;
15929;SDS011;8064;51.142;4.780;2023-10-13T04:25:11;17.50;;;10.02;;
15929;SDS011;8064;51.142;4.780;2023-10-13T04:28:00;15.25;;;10.52;;
15929;SDS011;8064;51.142;4.780;2023-10-13T04:35:59;15.00;;;10.45;;
15929;SDS011;8064;51.142;4.780;2023-10-13T04:38:48;17.23;;;10.13;;
15929;SDS011;8064;51.142;4.780;2023-10-13T04:41:24;15.73;;;10.20;;
15929;SDS011;8064;51.142;4.780;2023-10-13T04:43:57;15.07;;;9.30;;
15929;SDS011;8064;51.142;4.780;2023-10-13T04:46:30;16.88;;;8.57;;
15929;SDS011;8064;51.142;4.780;2023-10-13T04:49:11;13.70;;;8.65;;
15929;SDS011;8064;51.142;4.780;2023-10-13T04:51:54;13.20;;;8.82;;
15929;SDS011;8064;51.142;4.780;2023-10-13T04:54:34;12.85;;;7.88;;
15929;SDS011;8064;51.142;4.780;2023-10-13T04:57:15;14.35;;;8.02;;
15929;SDS011;8064;51.142;4.780;2023-10-13T04:59:56;11.93;;;7.70;;
15929;SDS011;8064;51.142;4.780;2023-10-13T05:02:42;12.27;;;8.20;;
15929;SDS011;8064;51.142;4.780;2023-10-13T05:05:28;14.20;;;7.20;;
15929;SDS011;8064;51.142;4.780;2023-10-13T05:08:12;11.27;;;7.22;;
15929;SDS011;8064;51.142;4.780;2023-10-13T05:10:57;14.93;;;7.50;;
15929;SDS011;8064;51.142;4.780;2023-10-13T05:13:41;13.82;;;7.28;;
15929;SDS011;8064;51.142;4.780;2023-10-13T05:16:25;15.27;;;7.40;;
15929;SDS011;8064;51.142;4.780;2023-10-13T05:19:09;14.57;;;6.80;;
15929;SDS011;8064;51.142;4.780;2023-10-13T05:22:13;10.63;;;6.10;;
15929;SDS011;8064;51.142;4.780;2023-10-13T05:24:57;15.80;;;6.90;;
15929;SDS011;8064;51.142;4.780;2023-10-13T05:27:41;16.95;;;7.13;;
15929;SDS011;8064;51.142;4.780;2023-10-13T05:30:25;14.07;;;6.68;;
15929;SDS011;8064;51.142;4.780;2023-10-13T05:33:09;14.65;;;6.40;;
15929;SDS011;8064;51.142;4.780;2023-10-13T05:35:53;11.52;;;6.32;;
15929;SDS011;8064;51.142;4.780;2023-10-13T05:38:37;13.55;;;7.00;;
15929;SDS011;8064;51.142;4.780;2023-10-13T05:41:21;15.05;;;5.82;;
15929;SDS011;8064;51.142;4.780;2023-10-13T05:44:06;13.38;;;5.97;;
15929;SDS011;8064;51.142;4.780;2023-10-13T05:46:50;13.13;;;6.05;;
15929;SDS011;8064;51.142;4.780;2023-10-13T05:49:36;12.80;;;5.90;;
15929;SDS011;8064;51.142;4.780;2023-10-13T05:52:30;9.90;;;5.63;;
15929;SDS011;8064;51.142;4.780;2023-10-13T05:55:28;11.13;;;5.72;;
15929;SDS011;8064;51.142;4.780;2023-10-13T05:58:13;12.82;;;5.82;;
15929;SDS011;8064;51.142;4.780;2023-10-13T06:00:58;9.75;;;5.93;;
15929;SDS011;8064;51.142;4.780;2023-10-13T06:03:43;10.13;;;5.45;;
15929;SDS011;8064;51.142;4.780;2023-10-13T06:06:27;9.35;;;5.25;;
15929;SDS011;8064;51.142;4.780;2023-10-13T06:09:11;14.65;;;6.07;;
15929;SDS011;8064;51.142;4.780;2023-10-13T06:11:55;10.00;;;5.57;;
15929;SDS011;8064;51.142;4.780;2023-10-13T06:14:39;12.60;;;6.07;;
15929;SDS011;8064;51.142;4.780;2023-10-13T06:17:24;14.98;;;6.47;;
15929;SDS011;8064;51.142;4.780;2023-10-13T06:20:08;11.48;;;5.38;;
15929;SDS011;8064;51.142;4.780;2023-10-13T06:22:53;11.25;;;5.68;;
15929;SDS011;8064;51.142;4.780;2023-10-13T06:25:37;10.75;;;5.07;;
15929;SDS011;8064;51.142;4.780;2023-10-13T06:28:22;12.32;;;5.78;;
15929;SDS011;8064;51.142;4.780;2023-10-13T06:31:06;13.33;;;6.97;;
15929;SDS011;8064;51.142;4.780;2023-10-13T06:33:33;12.07;;;5.65;;
15929;SDS011;8064;51.142;4.780;2023-10-13T06:36:00;18.02;;;5.95;;
15929;SDS011;8064;51.142;4.780;2023-10-13T06:38:28;12.63;;;5.97;;
15929;SDS011;8064;51.142;4.780;2023-10-13T06:41:03;11.73;;;5.45;;
15929;SDS011;8064;51.142;4.780;2023-10-13T06:43:35;13.60;;;6.00;;
15929;SDS011;8064;51.142;4.780;2023-10-13T06:46:08;10.27;;;5.00;;
15929;SDS011;8064;51.142;4.780;2023-10-13T06:48:40;12.55;;;5.40;;
15929;SDS011;8064;51.142;4.780;2023-10-13T06:51:06;16.42;;;6.82;;
15929;SDS011;8064;51.142;4.780;2023-10-13T06:53:44;13.98;;;5.68;;
15929;SDS011;8064;51.142;4.780;2023-10-13T06:56:12;11.93;;;5.07;;
15929;SDS011;8064;51.142;4.780;2023-10-13T06:58:47;12.20;;;5.00;;
15929;SDS011;8064;51.142;4.780;2023-10-13T07:01:13;11.52;;;5.25;;
15929;SDS011;8064;51.142;4.780;2023-10-13T07:03:42;12.85;;;5.53;;
15929;SDS011;8064;51.142;4.780;2023-10-13T07:06:08;10.73;;;4.63;;
15929;SDS011;8064;51.142;4.780;2023-10-13T07:08:43;11.82;;;5.68;;
15929;SDS011;8064;51.142;4.780;2023-10-13T07:11:17;13.60;;;5.15;;
15929;SDS011;8064;51.142;4.780;2023-10-13T07:13:58;13.63;;;5.30;;
15929;SDS011;8064;51.142;4.780;2023-10-13T07:16:36;12.00;;;5.95;;
15929;SDS011;8064;51.142;4.780;2023-10-13T07:19:12;10.65;;;4.95;;
15929;SDS011;8064;51.142;4.780;2023-10-13T07:21:44;10.63;;;5.18;;
15929;SDS011;8064;51.142;4.780;2023-10-13T07:24:12;9.38;;;4.47;;
15929;SDS011;8064;51.142;4.780;2023-10-13T07:26:38;12.40;;;5.10;;
15929;SDS011;8064;51.142;4.780;2023-10-13T07:29:12;11.10;;;4.68;;
15929;SDS011;8064;51.142;4.780;2023-10-13T07:31:39;9.10;;;4.50;;
15929;SDS011;8064;51.142;4.780;2023-10-13T07:34:06;12.82;;;4.35;;
15929;SDS011;8064;51.142;4.780;2023-10-13T07:36:51;14.48;;;5.43;;
15929;SDS011;8064;51.142;4.780;2023-10-13T07:39:18;12.45;;;4.45;;
15929;SDS011;8064;51.142;4.780;2023-10-13T07:41:50;12.05;;;4.78;;
15929;SDS011;8064;51.142;4.780;2023-10-13T07:44:36;10.85;;;5.18;;
15929;SDS011;8064;51.142;4.780;2023-10-13T07:47:04;10.73;;;4.57;;
15929;SDS011;8064;51.142;4.780;2023-10-13T07:49:33;9.80;;;4.10;;
15929;SDS011;8064;51.142;4.780;2023-10-13T07:52:05;12.88;;;4.65;;
15929;SDS011;8064;51.142;4.780;2023-10-13T07:54:45;12.00;;;4.72;;
15929;SDS011;8064;51.142;4.780;2023-10-13T07:57:21;14.00;;;4.80;;
15929;SDS011;8064;51.142;4.780;2023-10-13T07:59:54;11.18;;;5.15;;
15929;SDS011;8064;51.142;4.780;2023-10-13T08:02:33;8.55;;;4.55;;
15929;SDS011;8064;51.142;4.780;2023-10-13T08:05:15;9.55;;;4.70;;
15929;SDS011;8064;51.142;4.780;2023-10-13T08:07:54;9.90;;;4.15;;
15929;SDS011;8064;51.142;4.780;2023-10-13T08:10:21;11.75;;;4.47;;
15929;SDS011;8064;51.142;4.780;2023-10-13T08:12:54;9.27;;;3.92;;
15929;SDS011;8064;51.142;4.780;2023-10-13T08:15:23;9.90;;;4.53;;
15929;SDS011;8064;51.142;4.780;2023-10-13T08:17:58;10.40;;;4.50;;
15929;SDS011;8064;51.142;4.780;2023-10-13T08:20:28;9.68;;;4.82;;
15929;SDS011;8064;51.142;4.780;2023-10-13T08:22:55;9.30;;;4.45;;
15929;SDS011;8064;51.142;4.780;2023-10-13T08:25:38;11.90;;;4.63;;
15929;SDS011;8064;51.142;4.780;2023-10-13T08:28:24;11.25;;;4.53;;
15929;SDS011;8064;51.142;4.780;2023-10-13T08:31:05;10.50;;;4.47;;
15929;SDS011;8064;51.142;4.780;2023-10-13T08:33:47;9.02;;;4.35;;
15929;SDS011;8064;51.142;4.780;2023-10-13T08:36:14;7.65;;;4.30;;
15929;SDS011;8064;51.142;4.780;2023-10-13T08:38:53;12.13;;;4.57;;
15929;SDS011;8064;51.142;4.780;2023-10-13T08:41:20;9.77;;;4.45;;
15929;SDS011;8064;51.142;4.780;2023-10-13T08:43:47;10.75;;;4.32;;
15929;SDS011;8064;51.142;4.780;2023-10-13T08:46:16;12.98;;;4.30;;
15929;SDS011;8064;51.142;4.780;2023-10-13T08:48:52;11.57;;;4.80;;
15929;SDS011;8064;51.142;4.780;2023-10-13T08:51:30;6.82;;;4.57;;
15929;SDS011;8064;51.142;4.780;2023-10-13T08:54:08;13.70;;;5.10;;
15929;SDS011;8064;51.142;4.780;2023-10-13T08:56:44;10.35;;;4.07;;
15929;SDS011;8064;51.142;4.780;2023-10-13T08:59:21;8.25;;;4.68;;
15929;SDS011;8064;51.142;4.780;2023-10-13T09:01:56;13.18;;;5.20;;
15929;SDS011;8064;51.142;4.780;2023-10-13T09:04:40;13.10;;;4.57;;
15929;SDS011;8064;51.142;4.780;2023-10-13T09:07:09;13.73;;;4.60;;
15929;SDS011;8064;51.142;4.780;2023-10-13T09:12:13;11.20;;;4.47;;
15929;SDS011;8064;51.142;4.780;2023-10-13T09:14:43;13.05;;;4.43;;
15929;SDS011;8064;51.142;4.780;2023-10-13T09:17:22;6.60;;;4.03;;
15929;SDS011;8064;51.142;4.780;2023-10-13T09:19:58;11.85;;;4.53;;
15929;SDS011;8064;51.142;4.780;2023-10-13T09:22:44;11.52;;;4.85;;
15929;SDS011;8064;51.142;4.780;2023-10-13T09:25:32;10.88;;;4.35;;
15929;SDS011;8064;51.142;4.780;2023-10-13T09:28:11;10.48;;;5.05;;
15929;SDS011;8064;51.142;4.780;2023-10-13T09:30:50;11.18;;;4.30;;
15929;SDS011;8064;51.142;4.780;2023-10-13T09:33:20;11.10;;;4.82;;
15929;SDS011;8064;51.142;4.780;2023-10-13T09:35:57;10.93;;;5.10;;
15929;SDS011;8064;51.142;4.780;2023-10-13T09:38:25;9.20;;;4.57;;
15929;SDS011;8064;51.142;4.780;2023-10-13T09:40:53;11.57;;;4.43;;
15929;SDS011;8064;51.142;4.780;2023-10-13T09:43:22;11.38;;;4.88;;
15929;SDS011;8064;51.142;4.780;2023-10-13T09:45:50;11.48;;;4.90;;
15929;SDS011;8064;51.142;4.780;2023-10-13T09:48:31;8.63;;;4.93;;
15929;SDS011;8064;51.142;4.780;2023-10-13T09:51:00;12.45;;;4.43;;
15929;SDS011;8064;51.142;4.780;2023-10-13T09:53:29;12.48;;;5.20;;
15929;SDS011;8064;51.142;4.780;2023-10-13T09:56:02;16.45;;;4.55;;
15929;SDS011;8064;51.142;4.780;2023-10-13T09:58:42;11.02;;;4.50;;
15929;SDS011;8064;51.142;4.780;2023-10-13T10:01:17;8.90;;;5.05;;
15929;SDS011;8064;51.142;4.780;2023-10-13T10:04:06;9.98;;;4.53;;
15929;SDS011;8064;51.142;4.780;2023-10-13T10:06:34;10.18;;;5.07;;
15929;SDS011;8064;51.142;4.780;2023-10-13T10:09:10;14.63;;;5.22;;
15929;SDS011;8064;51.142;4.780;2023-10-13T10:14:33;9.45;;;4.65;;
15929;SDS011;8064;51.142;4.780;2023-10-13T10:17:13;13.27;;;5.07;;
15929;SDS011;8064;51.142;4.780;2023-10-13T10:19:47;9.32;;;4.10;;
15929;SDS011;8064;51.142;4.780;2023-10-13T10:22:24;9.65;;;5.05;;
15929;SDS011;8064;51.142;4.780;2023-10-13T10:25:03;10.20;;;4.63;;
15929;SDS011;8064;51.142;4.780;2023-10-13T10:27:32;10.40;;;4.70;;
15929;SDS011;8064;51.142;4.780;2023-10-13T10:29:59;9.88;;;4.90;;
15929;SDS011;8064;51.142;4.780;2023-10-13T10:32:32;13.25;;;4.85;;
15929;SDS011;8064;51.142;4.780;2023-10-13T10:35:04;8.40;;;4.85;;
15929;SDS011;8064;51.142;4.780;2023-10-13T10:37:33;10.93;;;5.35;;
15929;SDS011;8064;51.142;4.780;2023-10-13T10:40:00;9.48;;;4.85;;
15929;SDS011;8064;51.142;4.780;2023-10-13T10:42:30;8.18;;;4.40;;
15929;SDS011;8064;51.142;4.780;2023-10-13T10:44:56;18.58;;;5.07;;
15929;SDS011;8064;51.142;4.780;2023-10-13T10:47:30;12.63;;;5.38;;
15929;SDS011;8064;51.142;4.780;2023-10-13T10:49:57;11.43;;;4.90;;
15929;SDS011;8064;51.142;4.780;2023-10-13T10:52:25;12.98;;;4.60;;
15929;SDS011;8064;51.142;4.780;2023-10-13T10:54:58;12.98;;;4.85;;
15929;SDS011;8064;51.142;4.780;2023-10-13T10:57:24;13.40;;;4.93;;
15929;SDS011;8064;51.142;4.780;2023-10-13T10:59:54;11.18;;;4.70;;
15929;SDS011;8064;51.142;4.780;2023-10-13T11:02:36;16.75;;;5.55;;
15929;SDS011;8064;51.142;4.780;2023-10-13T11:05:03;10.43;;;5.03;;
15929;SDS011;8064;51.142;4.780;2023-10-13T11:07:31;15.07;;;5.13;;
15929;SDS011;8064;51.142;4.780;2023-10-13T11:10:07;13.57;;;5.15;;
15929;SDS011;8064;51.142;4.780;2023-10-13T11:12:37;12.50;;;4.50;;
15929;SDS011;8064;51.142;4.780;2023-10-13T11:15:05;14.95;;;5.13;;
15929;SDS011;8064;51.142;4.780;2023-10-13T11:17:40;9.27;;;4.85;;
15929;SDS011;8064;51.142;4.780;2023-10-13T11:20:09;13.45;;;5.43;;
15929;SDS011;8064;51.142;4.780;2023-10-13T11:22:49;13.27;;;4.95;;
15929;SDS011;8064;51.142;4.780;2023-10-13T11:25:20;16.35;;;5.30;;
15929;SDS011;8064;51.142;4.780;2023-10-13T11:27:48;13.15;;;5.32;;
15929;SDS011;8064;51.142;4.780;2023-10-13T11:30:15;14.75;;;4.80;;
15929;SDS011;8064;51.142;4.780;2023-10-13T11:32:45;17.40;;;5.57;;
15929;SDS011;8064;51.142;4.780;2023-10-13T11:35:24;10.82;;;4.85;;
15929;SDS011;8064;51.142;4.780;2023-10-13T11:37:50;11.23;;;4.90;;
15929;SDS011;8064;51.142;4.780;2023-10-13T11:40:36;11.43;;;5.25;;
15929;SDS011;8064;51.142;4.780;2023-10-13T11:43:09;14.18;;;5.65;;
15929;SDS011;8064;51.142;4.780;2023-10-13T11:45:39;16.80;;;5.15;;
15929;SDS011;8064;51.142;4.780;2023-10-13T11:48:21;15.43;;;4.82;;
15929;SDS011;8064;51.142;4.780;2023-10-13T11:51:01;12.25;;;4.60;;
15929;SDS011;8064;51.142;4.780;2023-10-13T11:53:34;16.92;;;4.75;;
15929;SDS011;8064;51.142;4.780;2023-10-13T11:56:00;11.05;;;4.53;;
15929;SDS011;8064;51.142;4.780;2023-10-13T11:58:26;19.02;;;5.75;;
15929;SDS011;8064;51.142;4.780;2023-10-13T12:00:54;17.58;;;5.55;;
15929;SDS011;8064;51.142;4.780;2023-10-13T12:03:33;12.50;;;4.65;;
15929;SDS011;8064;51.142;4.780;2023-10-13T12:06:26;13.80;;;5.03;;
15929;SDS011;8064;51.142;4.780;2023-10-13T12:09:12;14.02;;;5.20;;
15929;SDS011;8064;51.142;4.780;2023-10-13T12:11:43;12.05;;;5.18;;
15929;SDS011;8064;51.142;4.780;2023-10-13T12:14:10;17.00;;;5.35;;
15929;SDS011;8064;51.142;4.780;2023-10-13T12:16:43;11.90;;;4.78;;
15929;SDS011;8064;51.142;4.780;2023-10-13T12:19:14;12.60;;;4.72;;
15929;SDS011;8064;51.142;4.780;2023-10-13T12:21:42;15.65;;;4.85;;
15929;SDS011;8064;51.142;4.780;2023-10-13T12:24:09;17.33;;;5.63;;
15929;SDS011;8064;51.142;4.780;2023-10-13T12:26:47;10.55;;;4.80;;
15929;SDS011;8064;51.142;4.780;2023-10-13T12:29:14;9.45;;;4.18;;
15929;SDS011;8064;51.142;4.780;2023-10-13T12:31:48;9.85;;;4.70;;
15929;SDS011;8064;51.142;4.780;2023-10-13T12:34:30;7.60;;;4.88;;
15929;SDS011;8064;51.142;4.780;2023-10-13T12:37:16;10.13;;;4.38;;
15929;SDS011;8064;51.142;4.780;2023-10-13T12:40:00;11.35;;;4.03;;
15929;SDS011;8064;51.142;4.780;2023-10-13T12:42:46;11.10;;;4.55;;
15929;SDS011;8064;51.142;4.780;2023-10-13T12:45:31;9.88;;;4.57;;
15929;SDS011;8064;51.142;4.780;2023-10-13T12:48:15;12.10;;;4.05;;
15929;SDS011;8064;51.142;4.780;2023-10-13T12:51:01;14.90;;;4.60;;
15929;SDS011;8064;51.142;4.780;2023-10-13T12:53:51;9.93;;;4.43;;
15929;SDS011;8064;51.142;4.780;2023-10-13T12:56:18;9.48;;;4.05;;
15929;SDS011;8064;51.142;4.780;2023-10-13T12:58:51;11.38;;;4.05;;
15929;SDS011;8064;51.142;4.780;2023-10-13T13:01:19;11.70;;;4.18;;
15929;SDS011;8064;51.142;4.780;2023-10-13T13:03:47;11.13;;;4.55;;
15929;SDS011;8064;51.142;4.780;2023-10-13T13:06:17;8.55;;;3.75;;
15929;SDS011;8064;51.142;4.780;2023-10-13T13:08:50;12.32;;;4.22;;
15929;SDS011;8064;51.142;4.780;2023-10-13T13:11:16;14.13;;;4.70;;
15929;SDS011;8064;51.142;4.780;2023-10-13T13:13:42;12.02;;;4.85;;
15929;SDS011;8064;51.142;4.780;2023-10-13T13:16:08;7.80;;;4.55;;
15929;SDS011;8064;51.142;4.780;2023-10-13T13:18:34;12.00;;;4.38;;
15929;SDS011;8064;51.142;4.780;2023-10-13T13:21:00;9.77;;;3.90;;
15929;SDS011;8064;51.142;4.780;2023-10-13T13:23:27;11.77;;;4.18;;
15929;SDS011;8064;51.142;4.780;2023-10-13T13:25:53;9.95;;;4.32;;
15929;SDS011;8064;51.142;4.780;2023-10-13T13:28:19;10.68;;;4.40;;
15929;SDS011;8064;51.142;4.780;2023-10-13T13:30:44;9.80;;;4.00;;
15929;SDS011;8064;51.142;4.780;2023-10-13T13:33:15;10.18;;;4.35;;
15929;SDS011;8064;51.142;4.780;2023-10-13T13:35:42;12.13;;;4.43;;
15929;SDS011;8064;51.142;4.780;2023-10-13T13:38:08;12.73;;;4.10;;
15929;SDS011;8064;51.142;4.780;2023-10-13T13:40:41;10.40;;;4.50;;
15929;SDS011;8064;51.142;4.780;2023-10-13T13:43:09;11.07;;;3.92;;
15929;SDS011;8064;51.142;4.780;2023-10-13T13:45:44;10.45;;;4.32;;
15929;SDS011;8064;51.142;4.780;2023-10-13T13:48:10;11.55;;;4.32;;
15929;SDS011;8064;51.142;4.780;2023-10-13T13:50:40;9.75;;;4.25;;
15929;SDS011;8064;51.142;4.780;2023-10-13T13:53:06;7.80;;;4.10;;
15929;SDS011;8064;51.142;4.780;2023-10-13T13:55:35;9.93;;;4.10;;
15929;SDS011;8064;51.142;4.780;2023-10-13T13:58:05;9.95;;;4.43;;
15929;SDS011;8064;51.142;4.780;2023-10-13T14:00:33;10.48;;;4.18;;
15929;SDS011;8064;51.142;4.780;2023-10-13T14:03:13;12.43;;;4.90;;
15929;SDS011;8064;51.142;4.780;2023-10-13T14:05:57;11.15;;;4.07;;
15929;SDS011;8064;51.142;4.780;2023-10-13T14:08:24;10.05;;;3.85;;
15929;SDS011;8064;51.142;4.780;2023-10-13T14:10:52;11.55;;;4.22;;
15929;SDS011;8064;51.142;4.780;2023-10-13T14:13:37;13.65;;;3.90;;
15929;SDS011;8064;51.142;4.780;2023-10-13T14:16:21;9.13;;;3.95;;
15929;SDS011;8064;51.142;4.780;2023-10-13T14:18:48;10.40;;;4.13;;
15929;SDS011;8064;51.142;4.780;2023-10-13T14:21:16;12.43;;;4.45;;
15929;SDS011;8064;51.142;4.780;2023-10-13T14:23:44;9.65;;;4.10;;
15929;SDS011;8064;51.142;4.780;2023-10-13T14:26:12;10.98;;;4.10;;
15929;SDS011;8064;51.142;4.780;2023-10-13T14:28:38;9.60;;;4.28;;
15929;SDS011;8064;51.142;4.780;2023-10-13T14:31:15;11.80;;;4.40;;
15929;SDS011;8064;51.142;4.780;2023-10-13T14:33:43;9.30;;;3.92;;
15929;SDS011;8064;51.142;4.780;2023-10-13T14:36:11;10.55;;;4.20;;
15929;SDS011;8064;51.142;4.780;2023-10-13T14:38:37;8.82;;;4.25;;
15929;SDS011;8064;51.142;4.780;2023-10-13T14:41:03;7.97;;;4.03;;
15929;SDS011;8064;51.142;4.780;2023-10-13T14:43:30;10.65;;;3.75;;
15929;SDS011;8064;51.142;4.780;2023-10-13T14:45:56;9.70;;;4.05;;
15929;SDS011;8064;51.142;4.780;2023-10-13T14:48:22;11.32;;;4.18;;
15929;SDS011;8064;51.142;4.780;2023-10-13T14:50:50;10.07;;;4.07;;
15929;SDS011;8064;51.142;4.780;2023-10-13T14:53:16;9.30;;;3.97;;
15929;SDS011;8064;51.142;4.780;2023-10-13T14:55:44;13.02;;;4.60;;
15929;SDS011;8064;51.142;4.780;2023-10-13T14:58:10;8.25;;;4.35;;
15929;SDS011;8064;51.142;4.780;2023-10-13T15:00:41;8.05;;;4.22;;
15929;SDS011;8064;51.142;4.780;2023-10-13T15:03:13;8.95;;;4.00;;
15929;SDS011;8064;51.142;4.780;2023-10-13T15:05:39;9.80;;;3.88;;
15929;SDS011;8064;51.142;4.780;2023-10-13T15:08:08;9.10;;;4.47;;
15929;SDS011;8064;51.142;4.780;2023-10-13T15:10:34;6.78;;;3.90;;
15929;SDS011;8064;51.142;4.780;2023-10-13T15:13:02;10.27;;;3.97;;
15929;SDS011;8064;51.142;4.780;2023-10-13T15:15:30;10.63;;;4.13;;
15929;SDS011;8064;51.142;4.780;2023-10-13T15:17:57;10.23;;;3.45;;
15929;SDS011;8064;51.142;4.780;2023-10-13T15:20:23;9.23;;;4.22;;
15929;SDS011;8064;51.142;4.780;2023-10-13T15:22:49;8.88;;;4.38;;
15929;SDS011;8064;51.142;4.780;2023-10-13T15:25:19;8.18;;;4.18;;
15929;SDS011;8064;51.142;4.780;2023-10-13T15:28:00;9.80;;;4.65;;
15929;SDS011;8064;51.142;4.780;2023-10-13T15:30:27;9.07;;;4.47;;
15929;SDS011;8064;51.142;4.780;2023-10-13T15:33:10;6.60;;;3.85;;
15929;SDS011;8064;51.142;4.780;2023-10-13T15:35:38;13.25;;;4.32;;
15929;SDS011;8064;51.142;4.780;2023-10-13T15:38:08;9.25;;;3.90;;